createdAt,value
2019-04-20T00:00:56.538Z,103345.27
2019-04-20T00:02:07.217Z,103344.42
2019-04-20T00:03:01.651Z,103340.39
2019-04-20T00:04:03.248Z,103345.02
2019-04-20T00:05:05.758Z,103344.63
2019-04-20T00:06:07.233Z,103342.03
2019-04-20T00:07:10.089Z,103338.96
2019-04-20T00:08:16.846Z,103334.93
2019-04-20T00:09:19.351Z,103341.15
2019-04-20T00:10:21.212Z,103340.30
2019-04-20T00:11:29.478Z,103331.36
2019-04-20T00:12:36.803Z,103336.36
2019-04-20T00:13:37.835Z,103333.67
2019-04-20T00:14:34.532Z,103337.23
2019-04-20T00:15:36.850Z,103338.08
2019-04-20T00:16:38.344Z,103335.39
2019-04-20T00:17:45.909Z,103335.39
2019-04-20T00:18:49.854Z,103335.02
2019-04-20T00:19:50.680Z,103335.13
2019-04-20T00:20:57.706Z,103337.32
2019-04-20T00:22:02.967Z,103337.70
2019-04-20T00:23:05.939Z,103338.20
2019-04-20T00:24:24.818Z,103335.98
2019-04-20T00:25:44.395Z,103335.89
2019-04-20T00:27:04.683Z,103330.02
2019-04-20T00:27:59.693Z,103332.70
2019-04-20T00:29:00.182Z,103331.09
2019-04-20T00:30:04.430Z,103334.63
2019-04-20T00:31:07.279Z,103331.56
2019-04-20T00:32:05.343Z,103333.88
2019-04-20T00:33:07.316Z,103328.50
2019-04-20T00:34:09.172Z,103334.63
2019-04-20T00:35:04.489Z,103326.69
2019-04-20T00:36:07.219Z,103328.88
2019-04-20T00:37:09.191Z,103329.76
2019-04-20T00:38:11.937Z,103328.50
2019-04-20T00:39:16.446Z,103330.22
2019-04-20T00:40:17.178Z,103331.95
2019-04-20T00:41:20.594Z,103332.91
2019-04-20T00:42:30.305Z,103332.53
2019-04-20T00:43:30.365Z,103327.53
2019-04-20T00:44:35.432Z,103329.76
2019-04-20T00:45:36.184Z,103331.19
2019-04-20T00:46:46.915Z,103323.12
2019-04-20T00:47:47.844Z,103321.78
2019-04-20T00:48:50.825Z,103324.59
2019-04-20T00:49:58.094Z,103316.02
2019-04-20T00:51:11.504Z,103320.05
2019-04-20T00:52:19.036Z,103319.21
2019-04-20T00:53:06.797Z,103318.33
2019-04-20T00:54:00.882Z,103314.30
2019-04-20T00:55:04.320Z,103316.23
2019-04-20T00:56:05.693Z,103309.51
2019-04-20T00:57:17.655Z,103311.81
2019-04-20T00:58:22.318Z,103310.47
2019-04-20T00:59:25.294Z,103311.44
2019-04-20T01:00:33.904Z,103310.09
2019-04-20T01:01:46.167Z,103314.70
2019-04-20T01:02:37.065Z,103309.33
2019-04-20T01:03:43.170Z,103313.36
2019-04-20T01:04:56.570Z,103301.27
2019-04-20T01:06:15.206Z,103306.64
2019-04-20T01:07:14.091Z,103307.52
2019-04-20T01:08:06.944Z,103302.91
2019-04-20T01:09:20.322Z,103295.43
2019-04-20T01:10:23.629Z,103290.14
2019-04-20T01:11:31.828Z,103293.70
2019-04-20T01:12:32.894Z,103294.30
2019-04-20T01:13:31.944Z,103289.38
2019-04-20T01:14:43.440Z,103289.38
2019-04-20T01:15:47.150Z,103289.00
2019-04-20T01:16:47.308Z,103285.85
2019-04-20T01:17:44.318Z,103288.92
2019-04-20T01:18:47.203Z,103295.52
2019-04-20T01:19:52.736Z,103289.77
2019-04-20T01:20:53.560Z,103286.61
2019-04-20T01:22:01.494Z,103291.87
2019-04-20T01:23:04.867Z,103287.08
2019-04-20T01:24:05.378Z,103286.11
2019-04-20T01:25:15.125Z,103291.02
2019-04-20T01:26:15.352Z,103286.23
2019-04-20T01:27:27.365Z,103283.80
2019-04-20T01:28:33.795Z,103290.14
2019-04-20T01:29:29.460Z,103284.30
2019-04-20T01:30:30.305Z,103286.88
2019-04-20T01:31:35.539Z,103287.75
2019-04-20T01:32:41.538Z,103286.41
2019-04-20T01:33:48.431Z,103281.88
2019-04-20T01:34:47.671Z,103279.69
2019-04-20T01:35:56.942Z,103277.47
2019-04-20T01:37:00.994Z,103274.78
2019-04-20T01:38:07.355Z,103271.72
2019-04-20T01:39:02.788Z,103274.78
2019-04-20T01:39:57.266Z,103280.16
2019-04-20T01:40:57.155Z,103271.25
2019-04-20T01:42:00.261Z,103273.05
2019-04-20T01:43:01.827Z,103268.56
2019-04-20T01:44:03.221Z,103272.59
2019-04-20T01:45:10.156Z,103267.69
2019-04-20T01:46:15.686Z,103265.11
2019-04-20T01:47:13.352Z,103265.11
2019-04-20T01:48:22.011Z,103270.48
2019-04-20T01:49:22.460Z,103260.79
2019-04-20T01:50:26.068Z,103259.83
2019-04-20T01:51:28.604Z,103261.17
2019-04-20T01:52:43.962Z,103261.17
2019-04-20T01:53:50.417Z,103264.82
2019-04-20T01:55:06.564Z,103260.33
2019-04-20T01:56:01.424Z,103264.44
2019-04-20T01:56:58.565Z,103264.06
2019-04-20T01:58:27.436Z,103265.41
2019-04-20T01:59:20.035Z,103261.88
2019-04-20T02:00:25.360Z,103262.80
2019-04-20T02:01:41.223Z,103264.65
2019-04-20T02:02:57.052Z,103258.52
2019-04-20T02:04:03.106Z,103268.30
2019-04-20T02:05:10.937Z,103257.64
2019-04-20T02:06:21.634Z,103266.28
2019-04-20T02:07:28.533Z,103260.15
2019-04-20T02:08:28.130Z,103268.59
2019-04-20T02:10:40.360Z,103261.98
2019-04-20T02:11:40.148Z,103261.61
2019-04-20T02:12:40.850Z,103261.98
2019-04-20T02:13:48.093Z,103260.27
2019-04-20T02:14:51.720Z,103255.27
2019-04-20T02:15:52.731Z,103262.83
2019-04-20T02:17:03.207Z,103257.37
2019-04-20T02:18:07.478Z,103255.06
2019-04-20T02:19:13.512Z,103264.84
2019-04-20T02:20:27.540Z,103261.28
2019-04-20T02:21:25.744Z,103257.17
2019-04-20T02:22:29.795Z,103257.17
2019-04-20T02:23:29.404Z,103259.86
2019-04-20T02:24:19.630Z,103260.82
2019-04-20T02:25:21.052Z,103256.79
2019-04-20T02:26:22.444Z,103257.64
2019-04-20T02:27:31.310Z,103262.55
2019-04-20T02:28:55.282Z,103261.58
2019-04-20T02:29:50.314Z,103260.70
2019-04-20T02:32:19.720Z,103261.58
2019-04-20T02:33:32.327Z,103262.05
2019-04-20T02:34:24.128Z,103255.83
2019-04-20T02:36:58.732Z,103264.27
2019-04-20T02:38:03.034Z,103259.19
2019-04-20T02:40:12.930Z,103251.03
2019-04-20T02:41:15.812Z,103249.31
2019-04-20T02:42:20.306Z,103256.12
2019-04-20T02:43:15.696Z,103252.59
2019-04-20T02:45:38.827Z,103249.98
2019-04-20T02:46:24.236Z,103251.33
2019-04-20T02:48:35.810Z,103245.70
2019-04-20T02:51:46.675Z,103246.28
2019-04-20T02:52:56.748Z,103235.62
2019-04-20T02:54:05.642Z,103241.88
2019-04-20T02:55:09.573Z,103244.94
2019-04-20T02:56:04.882Z,103244.94
2019-04-20T02:58:00.676Z,103246.28
2019-04-20T02:59:42.680Z,103242.63
2019-04-20T03:00:18.297Z,103235.53
2019-04-20T03:01:26.649Z,103243.09
2019-04-20T03:02:23.539Z,103244.81
2019-04-20T03:03:24.719Z,103244.53
2019-04-20T03:04:25.723Z,103237.14
2019-04-20T03:05:30.884Z,103238.98
2019-04-20T03:06:32.646Z,103238.98
2019-04-20T03:07:41.057Z,103237.63
2019-04-20T03:08:54.562Z,103245.58
2019-04-20T03:09:50.192Z,103236.67
2019-04-20T03:11:06.220Z,103241.16
2019-04-20T03:13:04.982Z,103237.43
2019-04-20T03:14:02.515Z,103239.16
2019-04-20T03:15:02.837Z,103239.53
2019-04-20T03:16:11.378Z,103235.50
2019-04-20T03:17:18.554Z,103239.03
2019-04-20T03:18:19.732Z,103235.88
2019-04-20T03:19:17.025Z,103235.77
2019-04-20T03:20:28.928Z,103233.95
2019-04-20T03:21:35.930Z,103232.11
2019-04-20T03:22:51.232Z,103227.61
2019-04-20T03:23:44.490Z,103234.34
2019-04-20T03:24:59.777Z,103237.02
2019-04-20T03:25:52.616Z,103236.64
2019-04-20T03:26:55.667Z,103242.86
2019-04-20T03:27:59.557Z,103235.30
2019-04-20T03:29:10.156Z,103234.92
2019-04-20T03:31:05.693Z,103235.50
2019-04-20T03:32:08.457Z,103237.23
2019-04-20T03:33:06.955Z,103236.47
2019-04-20T03:34:13.003Z,103229.84
2019-04-20T03:35:08.064Z,103239.44
2019-04-20T03:36:07.532Z,103237.92
2019-04-20T03:37:07.328Z,103241.57
2019-04-20T03:38:07.514Z,103234.02
2019-04-20T03:39:01.496Z,103240.73
2019-04-20T03:40:04.402Z,103236.32
2019-04-20T03:41:05.239Z,103237.16
2019-04-20T03:41:57.032Z,103239.01
2019-04-20T03:42:59.098Z,103236.32
2019-04-20T03:44:06.532Z,103235.94
2019-04-20T03:45:09.750Z,103232.34
2019-04-20T03:46:12.771Z,103232.30
2019-04-20T03:47:25.590Z,103230.57
2019-04-20T03:48:34.620Z,103235.03
2019-04-20T03:49:46.989Z,103234.59
2019-04-20T03:50:42.453Z,103234.59
2019-04-20T03:51:47.139Z,103233.69
2019-04-20T03:52:58.070Z,103230.62
2019-04-20T03:54:08.688Z,103234.19
2019-04-20T03:55:34.143Z,103228.81
2019-04-20T03:56:34.893Z,103233.63
2019-04-20T03:57:42.956Z,103228.73
2019-04-20T03:58:51.936Z,103225.20
2019-04-20T04:00:22.018Z,103228.90
2019-04-20T04:01:57.324Z,103229.22
2019-04-20T04:02:52.781Z,103222.52
2019-04-20T04:03:59.225Z,103220.75
2019-04-20T04:05:05.888Z,103217.27
2019-04-20T04:06:07.842Z,103220.92
2019-04-20T04:07:01.879Z,103220.46
2019-04-20T04:08:12.258Z,103225.33
2019-04-20T04:09:16.201Z,103225.45
2019-04-20T04:10:20.754Z,103219.58
2019-04-20T04:11:31.262Z,103221.80
2019-04-20T04:12:53.166Z,103226.67
2019-04-20T04:13:54.671Z,103223.03
2019-04-20T04:14:56.022Z,103219.50
2019-04-20T04:16:04.279Z,103221.60
2019-04-20T04:17:02.968Z,103218.07
2019-04-20T04:18:13.870Z,103216.31
2019-04-20T04:19:18.059Z,103217.57
2019-04-20T04:20:15.927Z,103218.74
2019-04-20T04:21:27.131Z,103217.31
2019-04-20T04:22:37.615Z,103215.97
2019-04-20T04:23:40.569Z,103216.81
2019-04-20T04:24:35.391Z,103218.91
2019-04-20T04:25:48.031Z,103218.83
2019-04-20T04:26:50.034Z,103220.17
2019-04-20T04:27:54.902Z,103216.02
2019-04-20T04:28:54.773Z,103214.69
2019-04-20T04:30:03.304Z,103211.03
2019-04-20T04:31:09.512Z,103216.52
2019-04-20T04:32:15.780Z,103223.24
2019-04-20T04:33:44.522Z,103220.93
2019-04-20T04:34:16.475Z,103217.48
2019-04-20T04:35:14.248Z,103221.02
2019-04-20T04:36:17.804Z,103218.83
2019-04-20T04:37:27.205Z,103219.67
2019-04-20T04:38:36.284Z,103216.23
2019-04-20T04:39:31.175Z,103221.52
2019-04-20T04:40:42.808Z,103217.48
2019-04-20T04:41:36.080Z,103227.35
2019-04-20T04:42:49.247Z,103228.31
2019-04-20T04:43:48.373Z,103230.54
2019-04-20T04:44:42.279Z,103231.50
2019-04-20T04:45:33.954Z,103225.75
2019-04-20T04:46:42.680Z,103226.22
2019-04-20T04:47:39.248Z,103217.31
2019-04-20T04:48:44.770Z,103222.77
2019-04-20T04:49:53.900Z,103221.05
2019-04-20T04:50:55.368Z,103224.61
2019-04-20T04:52:00.177Z,103224.23
2019-04-20T04:53:02.771Z,103228.27
2019-04-20T04:54:03.753Z,103217.52
2019-04-20T04:55:16.251Z,103216.64
2019-04-20T04:56:09.457Z,103216.17
2019-04-20T04:57:07.474Z,103216.64
2019-04-20T04:58:08.884Z,103219.33
2019-04-20T04:59:10.701Z,103217.57
2019-04-20T05:00:20.052Z,103215.38
2019-04-20T05:01:20.627Z,103213.11
2019-04-20T05:02:22.511Z,103204.14
2019-04-20T05:03:41.383Z,103205.90
2019-04-20T05:05:05.195Z,103204.09
2019-04-20T05:06:18.600Z,103208.50
2019-04-20T05:07:16.817Z,103203.88
2019-04-20T05:08:17.921Z,103200.44
2019-04-20T05:09:15.420Z,103204.55
2019-04-20T05:10:15.995Z,103210.94
2019-04-20T05:11:17.648Z,103205.98
2019-04-20T05:12:23.937Z,103207.73
2019-04-20T05:13:26.737Z,103198.89
2019-04-20T05:14:38.752Z,103203.67
2019-04-20T05:15:42.447Z,103206.04
2019-04-20T05:16:49.980Z,103205.45
2019-04-20T05:17:57.761Z,103201.34
2019-04-20T05:19:03.135Z,103199.61
2019-04-20T05:20:02.583Z,103196.55
2019-04-20T05:21:10.970Z,103197.89
2019-04-20T05:22:13.737Z,103196.63
2019-04-20T05:23:16.293Z,103195.41
2019-04-20T05:24:25.543Z,103201.38
2019-04-20T05:25:36.543Z,103204.05
2019-04-20T05:26:51.143Z,103192.05
2019-04-20T05:27:52.473Z,103200.11
2019-04-20T05:28:51.432Z,103197.25
2019-04-20T05:29:44.682Z,103195.06
2019-04-20T05:30:52.573Z,103193.72
2019-04-20T05:31:57.221Z,103197.38
2019-04-20T05:33:01.671Z,103190.71
2019-04-20T05:34:19.907Z,103191.12
2019-04-20T05:35:21.501Z,103192.55
2019-04-20T05:36:23.450Z,103187.09
2019-04-20T05:37:34.582Z,103186.68
2019-04-20T05:38:39.785Z,103189.31
2019-04-20T05:39:51.949Z,103186.63
2019-04-20T05:40:38.626Z,103190.66
2019-04-20T05:41:38.874Z,103192.00
2019-04-20T05:42:49.996Z,103190.16
2019-04-20T05:43:50.749Z,103185.66
2019-04-20T05:44:57.210Z,103182.98
2019-04-20T05:45:58.707Z,103188.35
2019-04-20T05:47:06.967Z,103187.86
2019-04-20T05:48:09.052Z,103187.86
2019-04-20T05:49:19.373Z,103185.66
2019-04-20T05:50:15.589Z,103183.94
2019-04-20T05:51:25.170Z,103182.98
2019-04-20T05:53:31.048Z,103177.23
2019-04-20T05:54:37.120Z,103171.48
2019-04-20T05:55:36.000Z,103174.55
2019-04-20T05:56:44.448Z,103172.82
2019-04-20T05:57:46.260Z,103168.80
2019-04-20T05:58:45.062Z,103170.02
2019-04-20T05:59:59.465Z,103174.55
2019-04-20T06:00:57.072Z,103171.86
2019-04-20T06:02:02.174Z,103171.36
2019-04-20T06:03:00.797Z,103169.17
2019-04-20T06:03:58.243Z,103170.14
2019-04-20T06:05:11.322Z,103164.77
2019-04-20T06:06:08.089Z,103163.80
2019-04-20T06:07:15.514Z,103168.20
2019-04-20T06:08:24.951Z,103167.24
2019-04-20T06:09:22.693Z,103162.63
2019-04-20T06:10:26.019Z,103170.86
2019-04-20T06:11:26.661Z,103154.63
2019-04-20T06:12:31.488Z,103159.31
2019-04-20T06:13:27.857Z,103158.52
2019-04-20T06:14:47.086Z,103159.66
2019-04-20T06:16:09.760Z,103155.33
2019-04-20T06:17:20.940Z,103157.09
2019-04-20T06:18:21.186Z,103157.63
2019-04-20T06:19:34.290Z,103154.48
2019-04-20T06:20:33.881Z,103150.23
2019-04-20T06:21:37.904Z,103154.17
2019-04-20T06:22:41.690Z,103150.31
2019-04-20T06:23:53.089Z,103149.59
2019-04-20T06:25:23.690Z,103144.87
2019-04-20T06:26:33.613Z,103146.39
2019-04-20T06:27:25.868Z,103148.64
2019-04-20T06:28:22.286Z,103144.39
2019-04-20T06:29:23.954Z,103146.02
2019-04-20T06:30:27.382Z,103141.65
2019-04-20T06:31:35.977Z,103145.47
2019-04-20T06:33:29.195Z,103148.31
2019-04-20T06:35:48.239Z,103141.53
2019-04-20T06:36:32.168Z,103137.86
2019-04-20T06:37:40.458Z,103139.08
2019-04-20T06:39:41.679Z,103138.55
2019-04-20T06:40:58.019Z,103140.05
2019-04-20T06:42:07.001Z,103133.09
2019-04-20T06:42:51.986Z,103136.44
2019-04-20T06:43:57.865Z,103136.09
2019-04-20T06:45:02.204Z,103137.95
2019-04-20T06:46:04.347Z,103125.28
2019-04-20T06:48:05.910Z,103122.89
2019-04-20T06:49:16.940Z,103119.47
2019-04-20T06:50:13.569Z,103124.63
2019-04-20T06:51:35.056Z,103115.48
2019-04-20T06:52:34.171Z,103124.58
2019-04-20T06:53:43.614Z,103114.42
2019-04-20T06:55:00.261Z,103120.55
2019-04-20T06:56:09.919Z,103115.91
2019-04-20T06:57:09.941Z,103113.48
2019-04-20T06:58:31.864Z,103115.67
2019-04-20T06:59:29.079Z,103110.29
2019-04-20T07:00:18.060Z,103110.20
2019-04-20T07:01:26.200Z,103105.22
2019-04-20T07:02:40.245Z,103105.59
2019-04-20T07:03:45.277Z,103100.94
2019-04-20T07:05:39.588Z,103102.43
2019-04-20T07:06:50.607Z,103109.53
2019-04-20T07:08:56.823Z,103109.06
2019-04-20T07:10:02.642Z,103105.03
2019-04-20T07:11:02.164Z,103102.70
2019-04-20T07:11:56.576Z,103111.16
2019-04-20T07:13:01.731Z,103099.50
2019-04-20T07:13:55.651Z,103105.77
2019-04-20T07:15:01.776Z,103107.11
2019-04-20T07:16:21.364Z,103102.47
2019-04-20T07:17:33.531Z,103098.06
2019-04-20T07:18:33.571Z,103099.78
2019-04-20T07:19:31.700Z,103106.00
2019-04-20T07:21:09.892Z,103099.41
2019-04-20T07:22:20.160Z,103100.25
2019-04-20T07:23:20.264Z,103101.97
2019-04-20T07:24:21.642Z,103098.91
2019-04-20T07:25:13.954Z,103095.97
2019-04-20T07:26:23.857Z,103098.66
2019-04-20T07:27:19.636Z,103101.36
2019-04-20T07:28:29.166Z,103103.17
2019-04-20T07:29:36.871Z,103098.77
2019-04-20T07:30:29.646Z,103090.69
2019-04-20T07:31:30.483Z,103094.63
2019-04-20T07:32:44.144Z,103089.84
2019-04-20T07:33:41.153Z,103090.58
2019-04-20T07:34:47.478Z,103087.52
2019-04-20T07:35:46.224Z,103087.02
2019-04-20T07:36:57.396Z,103089.23
2019-04-20T07:38:18.198Z,103086.04
2019-04-20T07:39:00.682Z,103082.97
2019-04-20T07:40:05.948Z,103086.91
2019-04-20T07:41:01.766Z,103082.88
2019-04-20T07:42:08.729Z,103086.41
2019-04-20T07:43:07.991Z,103078.33
2019-04-20T07:44:18.528Z,103073.08
2019-04-20T07:45:33.242Z,103078.33
2019-04-20T07:46:37.635Z,103075.16
2019-04-20T07:47:32.993Z,103074.66
2019-04-20T07:48:27.659Z,103075.53
2019-04-20T07:49:32.623Z,103073.22
2019-04-20T07:50:32.107Z,103074.06
2019-04-20T07:51:25.977Z,103069.17
2019-04-20T07:52:33.823Z,103065.61
2019-04-20T07:53:36.609Z,103065.14
2019-04-20T07:55:03.500Z,103069.55
2019-04-20T07:55:56.625Z,103069.55
2019-04-20T07:56:53.713Z,103069.05
2019-04-20T07:57:50.074Z,103068.20
2019-04-20T07:58:49.243Z,103061.84
2019-04-20T08:00:08.432Z,103062.30
2019-04-20T08:01:14.947Z,103063.19
2019-04-20T08:02:33.858Z,103061.47
2019-04-20T08:04:47.149Z,103051.44
2019-04-20T08:05:55.380Z,103059.98
2019-04-20T08:06:53.212Z,103053.75
2019-04-20T08:08:02.450Z,103050.19
2019-04-20T08:09:07.357Z,103050.32
2019-04-20T08:10:02.938Z,103051.40
2019-04-20T08:11:13.763Z,103048.23
2019-04-20T08:12:31.352Z,103054.46
2019-04-20T08:13:41.915Z,103049.95
2019-04-20T08:14:42.514Z,103043.22
2019-04-20T08:15:42.991Z,103042.84
2019-04-20T08:17:09.547Z,103043.22
2019-04-20T08:18:51.229Z,103040.52
2019-04-20T08:19:45.428Z,103038.67
2019-04-20T08:20:55.808Z,103037.23
2019-04-20T08:21:52.994Z,103029.38
2019-04-20T08:22:58.610Z,103035.51
2019-04-20T08:24:05.029Z,103033.05
2019-04-20T08:25:02.106Z,103032.68
2019-04-20T08:26:00.436Z,103032.20
2019-04-20T08:27:01.056Z,103035.27
2019-04-20T08:28:06.398Z,103032.08
2019-04-20T08:29:29.062Z,103029.89
2019-04-20T08:30:38.508Z,103031.23
2019-04-20T08:31:40.697Z,103021.80
2019-04-20T08:32:58.265Z,103027.66
2019-04-20T08:34:26.478Z,103026.82
2019-04-20T08:35:32.247Z,103015.17
2019-04-20T08:36:33.432Z,103021.80
2019-04-20T08:37:34.443Z,103021.06
2019-04-20T08:39:51.207Z,103018.00
2019-04-20T08:40:50.324Z,103016.66
2019-04-20T08:41:56.389Z,103013.35
2019-04-20T08:43:05.139Z,103012.38
2019-04-20T08:44:03.016Z,103017.77
2019-04-20T08:45:03.851Z,103014.83
2019-04-20T08:46:08.940Z,103009.92
2019-04-20T08:48:17.337Z,103008.47
2019-04-20T08:49:22.090Z,103008.47
2019-04-20T08:50:22.240Z,103006.88
2019-04-20T08:51:22.620Z,103003.45
2019-04-20T08:52:46.957Z,103004.19
2019-04-20T08:53:30.858Z,103000.52
2019-04-20T08:54:31.292Z,102999.17
2019-04-20T08:55:33.183Z,103000.89
2019-04-20T08:56:31.812Z,102997.22
2019-04-20T08:57:22.719Z,103004.80
2019-04-20T08:58:24.841Z,102996.84
2019-04-20T08:59:26.291Z,102994.02
2019-04-20T09:00:33.276Z,102989.98
2019-04-20T09:01:35.263Z,102989.50
2019-04-20T09:02:34.928Z,102988.53
2019-04-20T09:03:48.727Z,102990.61
2019-04-20T09:04:49.327Z,102990.14
2019-04-20T09:05:52.320Z,102989.63
2019-04-20T09:07:01.022Z,102988.19
2019-04-20T09:08:02.399Z,102988.41
2019-04-20T09:09:11.772Z,102987.58
2019-04-20T09:10:25.326Z,102983.03
2019-04-20T09:11:15.322Z,102976.66
2019-04-20T09:12:21.163Z,102974.33
2019-04-20T09:13:18.608Z,102974.70
2019-04-20T09:14:21.406Z,102970.66
2019-04-20T09:15:23.391Z,102974.97
2019-04-20T09:16:32.406Z,102965.91
2019-04-20T09:17:39.706Z,102965.39
2019-04-20T09:18:49.345Z,102961.36
2019-04-20T09:19:50.310Z,102959.03
2019-04-20T09:20:53.834Z,102959.03
2019-04-20T09:21:55.173Z,102955.36
2019-04-20T09:23:13.547Z,102952.66
2019-04-20T09:24:19.772Z,102953.03
2019-04-20T09:25:42.790Z,102947.53
2019-04-20T09:26:23.240Z,102948.87
2019-04-20T09:27:24.560Z,102947.03
2019-04-20T09:28:22.318Z,102940.66
2019-04-20T09:29:30.588Z,102943.72
2019-04-20T09:30:32.002Z,102943.72
2019-04-20T09:31:40.898Z,102940.08
2019-04-20T09:32:48.873Z,102936.88
2019-04-20T09:34:01.531Z,102930.51
2019-04-20T09:35:07.790Z,102938.48
2019-04-20T09:36:16.634Z,102932.59
2019-04-20T09:37:37.119Z,102931.75
2019-04-20T09:38:22.108Z,102933.09
2019-04-20T09:39:29.542Z,102927.70
2019-04-20T09:40:40.230Z,102927.34
2019-04-20T09:41:57.801Z,102929.05
2019-04-20T09:42:42.280Z,102922.79
2019-04-20T09:43:47.479Z,102925.85
2019-04-20T09:44:51.428Z,102919.62
2019-04-20T09:45:58.749Z,102926.73
2019-04-20T09:46:59.830Z,102924.51
2019-04-20T09:48:00.608Z,102919.62
2019-04-20T09:49:18.324Z,102919.01
2019-04-20T09:50:23.261Z,102919.38
2019-04-20T09:51:30.650Z,102918.77
2019-04-20T09:52:28.980Z,102919.23
2019-04-20T09:53:30.130Z,102919.13
2019-04-20T09:54:35.831Z,102909.70
2019-04-20T09:55:37.828Z,102917.27
2019-04-20T09:56:47.890Z,102911.05
2019-04-20T09:57:50.262Z,102906.39
2019-04-20T09:58:56.382Z,102905.52
2019-04-20T09:59:57.497Z,102912.61
2019-04-20T10:01:00.774Z,102905.04
2019-04-20T10:01:54.655Z,102899.28
2019-04-20T10:02:50.540Z,102904.53
2019-04-20T10:03:52.720Z,102898.77
2019-04-20T10:04:55.585Z,102904.53
2019-04-20T10:05:57.089Z,102905.41
2019-04-20T10:07:02.204Z,102900.02
2019-04-20T10:08:06.110Z,102900.38
2019-04-20T10:09:07.660Z,102900.02
2019-04-20T10:10:21.385Z,102896.34
2019-04-20T10:11:13.844Z,102897.18
2019-04-20T10:12:15.661Z,102898.05
2019-04-20T10:13:17.515Z,102893.13
2019-04-20T10:14:20.059Z,102896.34
2019-04-20T10:15:25.029Z,102898.16
2019-04-20T10:16:25.998Z,102891.93
2019-04-20T10:17:31.362Z,102890.44
2019-04-20T10:18:34.268Z,102879.29
2019-04-20T10:19:37.374Z,102876.12
2019-04-20T10:20:38.875Z,102889.59
2019-04-20T10:21:41.744Z,102878.81
2019-04-20T10:22:43.131Z,102877.47
2019-04-20T10:23:45.921Z,102873.42
2019-04-20T10:24:50.106Z,102872.45
2019-04-20T10:25:50.966Z,102882.49
2019-04-20T10:26:52.520Z,102881.88
2019-04-20T10:27:53.954Z,102881.88
2019-04-20T10:28:57.482Z,102878.31
2019-04-20T10:30:02.242Z,102875.61
2019-04-20T10:31:02.649Z,102873.80
2019-04-20T10:32:10.148Z,102875.14
2019-04-20T10:33:07.765Z,102881.00
2019-04-20T10:34:11.301Z,102876.48
2019-04-20T10:35:15.649Z,102876.85
2019-04-20T10:36:33.436Z,102875.61
2019-04-20T10:37:37.759Z,102880.53
2019-04-20T10:38:40.209Z,102871.32
2019-04-20T10:39:42.654Z,102875.88
2019-04-20T10:40:55.925Z,102874.77
2019-04-20T10:41:53.541Z,102875.14
2019-04-20T10:42:53.084Z,102866.69
2019-04-20T10:43:54.685Z,102875.14
2019-04-20T10:44:58.642Z,102865.34
2019-04-20T10:46:00.322Z,102866.55
2019-04-20T10:47:02.977Z,102865.70
2019-04-20T10:48:05.448Z,102863.02
2019-04-20T10:49:09.583Z,102855.29
2019-04-20T10:50:11.514Z,102861.52
2019-04-20T10:51:13.948Z,102860.69
2019-04-20T10:52:15.861Z,102855.29
2019-04-20T10:53:17.631Z,102863.23
2019-04-20T10:54:20.235Z,102852.70
2019-04-20T10:55:22.120Z,102853.06
2019-04-20T10:56:23.704Z,102844.98
2019-04-20T10:57:25.805Z,102844.14
2019-04-20T10:58:27.529Z,102842.29
2019-04-20T10:59:29.754Z,102838.24
2019-04-20T11:00:43.974Z,102837.77
2019-04-20T11:01:45.811Z,102838.39
2019-04-20T11:02:49.094Z,102844.51
2019-04-20T11:03:50.588Z,102839.23
2019-04-20T11:04:52.635Z,102836.67
2019-04-20T11:05:54.500Z,102839.00
2019-04-20T11:06:56.642Z,102839.98
2019-04-20T11:07:58.801Z,102831.91
2019-04-20T11:09:00.462Z,102834.59
2019-04-20T11:10:13.363Z,102830.19
2019-04-20T11:11:14.608Z,102831.53
2019-04-20T11:12:12.481Z,102831.03
2019-04-20T11:13:15.194Z,102829.20
2019-04-20T11:14:25.784Z,102833.25
2019-04-20T11:15:20.932Z,102830.55
2019-04-20T11:16:22.372Z,102825.16
2019-04-20T11:17:24.693Z,102824.80
2019-04-20T11:18:27.346Z,102830.19
2019-04-20T11:19:29.420Z,102821.23
2019-04-20T11:20:31.152Z,102815.84
2019-04-20T11:21:32.556Z,102823.92
2019-04-20T11:22:34.716Z,102829.83
2019-04-20T11:23:38.315Z,102823.09
2019-04-20T11:24:40.559Z,102811.33
2019-04-20T11:25:42.173Z,102811.33
2019-04-20T11:26:45.091Z,102815.37
2019-04-20T11:27:48.100Z,102818.06
2019-04-20T11:28:50.392Z,102814.86
2019-04-20T11:29:51.989Z,102811.69
2019-04-20T11:30:54.254Z,102814.38
2019-04-20T11:31:56.503Z,102812.67
2019-04-20T11:33:00.236Z,102810.81
2019-04-20T11:34:01.672Z,102812.67
2019-04-20T11:35:11.087Z,102809.98
2019-04-20T11:36:07.548Z,102807.28
2019-04-20T11:37:09.033Z,102806.30
2019-04-20T11:38:13.431Z,102808.99
2019-04-20T11:39:14.754Z,102807.28
2019-04-20T11:40:16.985Z,102804.59
2019-04-20T11:41:25.178Z,102804.59
2019-04-20T11:42:21.811Z,102805.79
2019-04-20T11:43:23.958Z,102806.66
2019-04-20T11:44:29.380Z,102803.97
2019-04-20T11:45:28.859Z,102798.69
2019-04-20T11:46:30.531Z,102793.80
2019-04-20T11:47:32.027Z,102802.36
2019-04-20T11:48:33.796Z,102801.89
2019-04-20T11:49:35.446Z,102797.34
2019-04-20T11:50:37.767Z,102797.84
2019-04-20T11:51:39.482Z,102800.03
2019-04-20T11:52:44.587Z,102798.69
2019-04-20T11:53:44.291Z,102795.52
2019-04-20T11:54:46.341Z,102795.52
2019-04-20T11:55:48.816Z,102790.97
2019-04-20T11:56:51.236Z,102792.31
2019-04-20T11:57:53.910Z,102797.23
2019-04-20T11:58:56.782Z,102785.58
2019-04-20T11:59:59.192Z,102786.45
2019-04-20T12:01:22.561Z,102790.97
2019-04-20T12:02:37.170Z,102791.47
2019-04-20T12:03:47.926Z,102786.45
2019-04-20T12:04:49.182Z,102788.41
2019-04-20T12:05:51.263Z,102780.95
2019-04-20T12:06:48.805Z,102786.81
2019-04-20T12:07:55.272Z,102781.93
2019-04-20T12:08:57.285Z,102780.69
2019-04-20T12:10:09.123Z,102777.52
2019-04-20T12:11:18.841Z,102778.98
2019-04-20T12:12:15.622Z,102770.89
2019-04-20T12:13:09.830Z,102775.30
2019-04-20T12:14:12.606Z,102772.13
2019-04-20T12:15:14.754Z,102772.50
2019-04-20T12:16:17.320Z,102769.08
2019-04-20T12:17:19.632Z,102769.44
2019-04-20T12:18:21.094Z,102766.74
2019-04-20T12:19:22.960Z,102767.11
2019-04-20T12:20:25.004Z,102764.52
2019-04-20T12:21:26.723Z,102763.54
2019-04-20T12:22:28.294Z,102760.38
2019-04-20T12:23:30.645Z,102752.76
2019-04-20T12:24:33.216Z,102760.01
2019-04-20T12:25:36.700Z,102755.97
2019-04-20T12:26:38.648Z,102758.15
2019-04-20T12:27:47.533Z,102754.98
2019-04-20T12:28:43.559Z,102755.97
2019-04-20T12:29:45.765Z,102749.70
2019-04-20T12:30:47.961Z,102754.25
2019-04-20T12:31:53.877Z,102744.82
2019-04-20T12:32:57.599Z,102743.47
2019-04-20T12:33:56.176Z,102751.05
2019-04-20T12:34:58.217Z,102752.91
2019-04-20T12:36:00.393Z,102754.25